Terminal Aerodrome Forecast
Issued by NWS

Home | Current Version | Previous Version | Text Only | Print | Product List | Glossary Off
Versions: 1 2 3 4 5 6 7 8 9 10 11 12 13 14 15 16 17 18

000
FTUS41 KCLE 290259 AAA
TAFFDY
TAF AMD
KFDY 290259Z 2903/2924 03005KT P6SM OVC012
     FM291500 01004KT P6SM OVC007
     FM291600 02006KT P6SM OVC015
     FM292300 04008KT P6SM OVC035=

USA.gov is the U.S. government's official web portal to all federal, state and local government web resources and services.